Time;durP1;ratioP1;P1;durP2;ratioP2;P2;SDS_P1;SDS_P2;PMS_P1;PMS_P2;Temp;Humidity;BMP_temperature;BMP_pressure;BME280_temperature;BME280_humidity;BME280_pressure;Samples;Min_cycle;Max_cycle;Signal;HPM_P1;HPM_P2
2021/06/22 00:00:13;;;;;;;18.40;16.50;;;22.00;99.90;;;;;;5119271;28;20406;-60
2021/06/22 00:02:40;;;;;;;18.53;16.57;;;22.00;99.90;;;;;;5115642;28;20456;-59
2021/06/22 00:05:08;;;;;;;21.00;16.37;;;22.00;99.90;;;;;;5113069;28;20448;-63
2021/06/22 00:07:35;;;;;;;19.13;17.10;;;21.90;99.90;;;;;;5113817;28;20468;-62
2021/06/22 00:10:04;;;;;;;22.20;18.60;;;21.90;99.90;;;;;;5117265;28;20418;-61
2021/06/22 00:12:31;;;;;;;19.47;17.57;;;21.90;99.90;;;;;;5116379;28;20534;-62
2021/06/22 00:14:58;;;;;;;20.60;17.60;;;21.90;99.90;;;;;;5115176;28;20673;-59
2021/06/22 00:17:25;;;;;;;18.43;16.53;;;21.90;99.90;;;;;;5118522;28;20423;-61
2021/06/22 00:19:53;;;;;;;20.90;16.27;;;21.90;99.90;;;;;;5118105;28;20846;-60
2021/06/22 00:22:20;;;;;;;18.40;15.27;;;21.90;99.90;;;;;;5116343;28;20445;-60
2021/06/22 00:24:47;;;;;;;17.53;15.63;;;21.80;99.90;;;;;;5115682;28;20472;-60
2021/06/22 00:27:14;;;;;;;17.90;14.90;;;21.80;99.90;;;;;;5113434;28;20416;-60
2021/06/22 00:29:43;;;;;;;18.43;16.60;;;21.80;99.90;;;;;;5113436;28;20434;-60
2021/06/22 00:32:10;;;;;;;17.23;15.57;;;21.80;99.90;;;;;;5119179;27;20453;-60
2021/06/22 00:34:38;;;;;;;19.90;17.33;;;21.70;99.90;;;;;;5117946;27;20445;-60
2021/06/22 00:37:05;;;;;;;19.40;16.00;;;21.70;99.90;;;;;;5116635;28;20434;-60
2021/06/22 00:39:32;;;;;;;27.03;14.30;;;21.70;99.90;;;;;;5117690;28;20423;-60
2021/06/22 00:41:59;;;;;;;19.63;16.10;;;21.40;99.90;;;;;;5115972;28;20446;-60
2021/06/22 00:44:26;;;;;;;17.47;15.83;;;21.30;99.90;;;;;;5116005;28;20716;-62
2021/06/22 00:46:53;;;;;;;18.40;16.40;;;21.30;99.90;;;;;;5115730;28;20663;-60
2021/06/22 00:49:20;;;;;;;17.07;15.37;;;21.30;99.90;;;;;;5114714;28;20423;-60
2021/06/22 00:51:47;;;;;;;20.83;17.43;;;21.40;99.90;;;;;;5117549;28;20478;-60
2021/06/22 00:54:14;;;;;;;22.60;17.80;;;21.30;99.90;;;;;;5115217;28;20770;-61
2021/06/22 00:56:42;;;;;;;18.87;16.50;;;21.40;99.90;;;;;;5116657;28;20615;-62
2021/06/22 00:59:09;;;;;;;18.80;16.07;;;21.50;99.90;;;;;;5116829;28;20438;-61
2021/06/22 01:01:36;;;;;;;19.00;15.53;;;21.50;99.90;;;;;;5113150;28;20614;-61
2021/06/22 01:04:03;;;;;;;19.10;16.70;;;21.40;99.90;;;;;;5117853;28;20480;-60
2021/06/22 01:06:31;;;;;;;17.67;15.77;;;21.20;99.90;;;;;;5118015;28;20547;-60
2021/06/22 01:08:58;;;;;;;25.00;17.10;;;21.10;99.90;;;;;;5117865;28;20406;-60
2021/06/22 01:11:25;;;;;;;30.27;15.57;;;21.20;99.90;;;;;;5116291;28;20630;-60
2021/06/22 01:13:52;;;;;;;16.53;14.80;;;21.20;99.90;;;;;;5115954;28;20785;-60
2021/06/22 01:16:24;;;;;;;14.00;12.70;;;21.10;99.90;;;;;;5116420;28;20413;-60
2021/06/22 01:19:02;;;;;;;31.40;14.00;;;20.90;99.90;;;;;;5114783;28;20535;-61
2021/06/22 01:21:31;;;;;;;16.17;13.87;;;21.00;99.90;;;;;;5116445;28;20424;-62
2021/06/22 01:24:11;;;;;;;25.13;13.10;;;21.00;99.90;;;;;;5116295;28;20434;-61
2021/06/22 01:26:44;;;;;;;19.30;12.20;;;20.80;99.90;;;;;;5117585;28;20485;-61
2021/06/22 01:29:11;;;;;;;12.70;10.87;;;20.70;99.90;;;;;;5114409;28;20408;-61
2021/06/22 01:31:38;;;;;;;12.70;9.63;;;20.70;99.90;;;;;;5114220;28;20485;-61
2021/06/22 01:34:05;;;;;;;12.03;10.20;;;20.80;99.90;;;;;;5117164;27;20484;-61
2021/06/22 01:36:34;;;;;;;14.77;9.10;;;20.70;99.90;;;;;;5116447;28;20589;-60
2021/06/22 01:39:04;;;;;;;15.70;9.90;;;20.60;99.90;;;;;;5114903;28;20426;-61
2021/06/22 01:41:31;;;;;;;17.23;10.20;;;20.50;99.90;;;;;;5114011;28;20424;-61
2021/06/22 01:43:59;;;;;;;13.30;11.90;;;20.40;99.90;;;;;;5111965;28;20412;-61
2021/06/22 01:46:26;;;;;;;14.43;10.80;;;20.30;99.90;;;;;;5116897;28;20445;-61
2021/06/22 01:48:53;;;;;;;11.70;10.47;;;20.20;99.90;;;;;;5114272;28;20413;-62
2021/06/22 01:51:20;;;;;;;18.20;10.27;;;20.20;99.90;;;;;;5115435;28;20425;-61
2021/06/22 01:53:56;;;;;;;22.03;9.77;;;20.30;99.90;;;;;;5116192;28;20468;-60
2021/06/22 01:56:26;;;;;;;12.60;10.30;;;20.30;99.90;;;;;;5113582;28;20488;-62
2021/06/22 01:58:54;;;;;;;15.53;12.70;;;20.20;99.90;;;;;;5116315;28;20569;-62
2021/06/22 02:01:21;;;;;;;12.83;10.03;;;20.30;99.90;;;;;;5113066;28;20450;-61
2021/06/22 02:03:48;;;;;;;22.33;11.20;;;20.30;99.90;;;;;;5116038;28;20542;-61
2021/06/22 02:06:15;;;;;;;13.30;10.37;;;20.30;99.90;;;;;;5108579;28;20424;-60
2021/06/22 02:08:42;;;;;;;12.90;9.23;;;20.40;99.90;;;;;;5105600;28;20483;-61
2021/06/22 02:11:09;;;;;;;20.07;9.83;;;20.30;99.90;;;;;;5114421;28;20481;-60
2021/06/22 02:13:36;;;;;;;13.80;10.27;;;20.30;99.90;;;;;;5116214;28;20485;-60
2021/06/22 02:16:04;;;;;;;13.13;11.17;;;20.30;99.90;;;;;;5115645;28;20483;-61
2021/06/22 02:18:31;;;;;;;17.40;10.83;;;20.40;99.90;;;;;;5110473;28;20477;-61
2021/06/22 02:20:58;;;;;;;13.53;11.80;;;20.20;99.90;;;;;;5112108;28;20434;-60
2021/06/22 02:23:25;;;;;;;19.43;10.50;;;20.30;99.90;;;;;;5112916;28;20478;-60
2021/06/22 02:25:52;;;;;;;18.47;12.13;;;20.30;99.90;;;;;;5114171;28;20598;-60
2021/06/22 02:28:22;;;;;;;14.67;11.13;;;20.20;99.90;;;;;;5113686;28;20412;-61
2021/06/22 02:30:51;;;;;;;13.77;10.07;;;20.30;99.90;;;;;;5119632;28;20449;-60
2021/06/22 02:33:18;;;;;;;16.83;10.07;;;20.30;99.90;;;;;;5122089;27;20448;-61
2021/06/22 02:35:46;;;;;;;14.00;10.40;;;20.10;99.90;;;;;;5117386;28;20416;-60
2021/06/22 02:38:14;;;;;;;17.77;10.43;;;20.00;99.90;;;;;;5120553;28;20438;-60
2021/06/22 02:40:41;;;;;;;16.57;11.40;;;20.10;99.90;;;;;;5120013;28;20887;-60
2021/06/22 02:43:08;;;;;;;12.00;10.30;;;20.00;99.90;;;;;;5119250;28;20441;-61
2021/06/22 02:45:35;;;;;;;15.40;12.37;;;20.10;99.90;;;;;;5117721;28;20424;-62
2021/06/22 02:48:04;;;;;;;19.17;11.60;;;20.10;99.90;;;;;;5116754;28;20682;-61
2021/06/22 02:50:31;;;;;;;16.23;11.47;;;20.00;99.90;;;;;;5119952;28;20483;-61
2021/06/22 02:52:58;;;;;;;17.63;11.00;;;20.10;99.90;;;;;;5114346;28;20839;-60
2021/06/22 02:55:25;;;;;;;26.57;10.13;;;20.10;99.90;;;;;;5117897;28;20442;-60
2021/06/22 02:57:55;;;;;;;19.90;11.50;;;20.20;99.90;;;;;;5118215;28;20461;-61
2021/06/22 03:00:26;;;;;;;23.20;11.60;;;20.40;99.90;;;;;;5119616;28;20438;-60
2021/06/22 03:02:54;;;;;;;13.67;10.60;;;20.50;99.90;;;;;;5117194;28;20425;-59
2021/06/22 03:05:21;;;;;;;13.90;9.93;;;20.50;99.90;;;;;;5115055;28;20441;-60
2021/06/22 03:07:50;;;;;;;20.97;10.13;;;20.20;99.90;;;;;;5117941;28;20468;-62
2021/06/22 03:10:20;;;;;;;19.27;10.00;;;20.10;99.90;;;;;;5115148;28;20458;-60
2021/06/22 03:12:47;;;;;;;13.07;9.63;;;20.10;99.90;;;;;;5118836;28;20873;-61
2021/06/22 03:15:15;;;;;;;13.80;8.70;;;20.10;99.90;;;;;;5118850;28;20731;-60
2021/06/22 03:17:43;;;;;;;18.73;9.70;;;20.20;99.90;;;;;;5119066;28;20463;-60
2021/06/22 03:20:11;;;;;;;13.80;8.90;;;21.30;99.90;;;;;;5115936;28;20465;-60
2021/06/22 03:22:39;;;;;;;13.53;9.77;;;20.80;99.90;;;;;;5116370;28;20473;-59
2021/06/22 03:25:08;;;;;;;17.90;9.20;;;20.80;99.90;;;;;;5118317;28;20413;-60
2021/06/22 03:27:35;;;;;;;13.27;9.07;;;20.80;99.90;;;;;;5115463;28;20576;-60
2021/06/22 03:30:05;;;;;;;15.23;8.37;;;20.90;99.90;;;;;;5119144;28;20459;-60
2021/06/22 03:32:32;;;;;;;19.73;9.40;;;21.10;99.90;;;;;;5118737;27;20478;-59
2021/06/22 03:34:59;;;;;;;10.83;8.20;;;21.20;99.90;;;;;;5119230;28;20416;-59
2021/06/22 03:37:26;;;;;;;13.93;9.53;;;21.50;99.90;;;;;;5114874;28;20763;-60
2021/06/22 03:39:53;;;;;;;10.60;8.60;;;21.80;99.90;;;;;;5118592;28;20417;-60
2021/06/22 03:42:20;;;;;;;14.70;9.27;;;21.80;99.90;;;;;;5113059;28;20469;-60
2021/06/22 03:44:48;;;;;;;12.30;8.67;;;22.00;99.90;;;;;;5117723;28;20489;-60
2021/06/22 03:47:15;;;;;;;18.27;10.10;;;22.30;99.90;;;;;;5118130;28;20603;-60
2021/06/22 03:49:42;;;;;;;15.37;8.40;;;22.90;99.90;;;;;;5116010;28;20741;-59
2021/06/22 03:52:09;;;;;;;14.07;9.27;;;23.60;99.90;;;;;;5118224;28;20815;-59
2021/06/22 03:54:36;;;;;;;11.70;9.70;;;24.10;99.90;;;;;;5116361;28;20779;-60
2021/06/22 03:57:03;;;;;;;15.43;11.07;;;24.30;99.90;;;;;;5118141;28;20787;-60
2021/06/22 03:59:30;;;;;;;18.20;10.00;;;24.20;99.90;;;;;;5115431;28;20409;-60
2021/06/22 04:01:57;;;;;;;14.83;11.03;;;24.20;99.90;;;;;;5118180;28;20413;-59
2021/06/22 04:04:24;;;;;;;13.60;11.10;;;24.00;99.90;;;;;;5115318;28;20495;-60
2021/06/22 04:06:52;;;;;;;11.07;9.90;;;24.00;99.90;;;;;;5115501;28;20460;-58
2021/06/22 04:09:25;;;;;;;17.53;9.90;;;23.70;99.90;;;;;;5118013;28;20490;-60
2021/06/22 04:11:55;;;;;;;17.53;11.30;;;23.40;99.90;;;;;;5116758;28;20554;-58
2021/06/22 04:14:22;;;;;;;14.60;10.90;;;23.10;99.90;;;;;;5114488;28;20520;-59
2021/06/22 04:16:49;;;;;;;14.33;9.93;;;23.20;99.90;;;;;;5117980;28;21015;-59
2021/06/22 04:19:16;;;;;;;23.93;9.90;;;23.30;99.90;;;;;;5112135;28;20853;-60
2021/06/22 04:21:44;;;;;;;14.77;9.77;;;23.20;99.90;;;;;;5115413;28;20445;-59
2021/06/22 04:24:11;;;;;;;13.57;9.13;;;23.00;99.90;;;;;;5116378;28;20434;-59
2021/06/22 04:26:38;;;;;;;18.00;10.50;;;22.90;99.90;;;;;;5115585;28;20556;-59
2021/06/22 04:29:05;;;;;;;17.23;10.00;;;22.90;99.90;;;;;;5115255;28;20727;-60
2021/06/22 04:31:32;;;;;;;11.87;8.63;;;22.80;99.90;;;;;;5116223;28;20415;-60
2021/06/22 04:34:00;;;;;;;15.70;10.90;;;22.90;99.90;;;;;;5116152;28;20455;-60
2021/06/22 04:36:27;;;;;;;18.23;11.23;;;23.00;99.90;;;;;;5116937;28;20453;-59
2021/06/22 04:38:54;;;;;;;17.40;9.73;;;23.10;99.90;;;;;;5115894;28;20413;-59
2021/06/22 04:41:22;;;;;;;14.63;10.53;;;23.20;99.90;;;;;;5117263;28;20416;-60
2021/06/22 04:43:50;;;;;;;22.03;12.53;;;23.50;99.90;;;;;;5115221;27;20467;-59
2021/06/22 04:46:17;;;;;;;16.07;10.97;;;23.70;99.90;;;;;;5116215;28;20895;-59
2021/06/22 04:48:45;;;;;;;11.70;9.40;;;24.50;99.90;;;;;;5114568;28;20476;-59
2021/06/22 04:51:15;;;;;;;14.00;10.23;;;24.10;99.90;;;;;;5113796;27;20458;-59
2021/06/22 04:53:42;;;;;;;16.70;10.87;;;24.30;99.90;;;;;;5115886;28;20498;-59
2021/06/22 04:56:09;;;;;;;19.93;11.70;;;24.30;99.90;;;;;;5114327;28;20626;-59
2021/06/22 04:58:36;;;;;;;18.60;11.57;;;25.00;99.90;;;;;;5117292;28;20417;-59
2021/06/22 05:01:05;;;;;;;18.70;11.53;;;24.20;99.90;;;;;;5102150;28;20641;-59
2021/06/22 05:03:34;;;;;;;13.27;10.17;;;24.10;99.90;;;;;;5116836;28;20498;-58
2021/06/22 05:06:01;;;;;;;13.20;10.50;;;24.10;99.90;;;;;;5115866;28;20442;-58
2021/06/22 05:08:28;;;;;;;15.60;10.23;;;24.20;99.90;;;;;;5108489;28;20442;-59
2021/06/22 05:10:55;;;;;;;16.90;11.20;;;24.50;99.90;;;;;;5110863;28;20434;-59
2021/06/22 05:13:22;;;;;;;17.30;11.13;;;24.80;99.90;;;;;;5111241;28;20643;-59
2021/06/22 05:15:49;;;;;;;17.47;13.20;;;25.20;99.90;;;;;;5107293;28;20417;-58
2021/06/22 05:18:17;;;;;;;13.97;12.13;;;25.50;99.90;;;;;;5113318;28;21035;-58
2021/06/22 05:20:44;;;;;;;15.00;12.47;;;25.80;99.90;;;;;;5110029;28;20417;-59
2021/06/22 05:23:11;;;;;;;17.43;12.27;;;25.90;99.90;;;;;;5113072;28;20460;-59
2021/06/22 05:25:42;;;;;;;18.47;12.13;;;26.00;99.90;;;;;;5112774;28;20457;-59
2021/06/22 05:28:10;;;;;;;16.27;12.97;;;26.00;99.90;;;;;;5116953;28;20708;-59
2021/06/22 05:30:37;;;;;;;14.70;13.07;;;25.90;99.90;;;;;;5111521;28;20406;-59
2021/06/22 05:33:04;;;;;;;20.50;14.20;;;25.80;99.90;;;;;;5113672;28;20497;-59
2021/06/22 05:35:33;;;;;;;19.60;13.47;;;26.20;99.90;;;;;;5107443;28;20441;-58
2021/06/22 05:38:08;;;;;;;14.77;13.27;;;26.40;99.90;;;;;;5095039;28;20417;-59
2021/06/22 05:40:39;;;;;;;20.37;13.60;;;27.00;99.90;;;;;;5113497;28;20442;-58
2021/06/22 05:43:09;;;;;;;22.17;15.03;;;27.30;99.90;;;;;;5110541;28;20642;-58
2021/06/22 05:45:38;;;;;;;17.37;15.47;;;27.60;99.90;;;;;;5113068;28;20450;-59
2021/06/22 05:48:06;;;;;;;17.73;14.07;;;27.90;99.90;;;;;;5112170;28;20780;-59
2021/06/22 05:50:33;;;;;;;16.60;14.87;;;27.90;99.90;;;;;;5113333;28;20714;-59
2021/06/22 05:53:01;;;;;;;14.20;12.40;;;27.80;99.90;;;;;;5111288;28;20520;-60
2021/06/22 05:55:28;;;;;;;15.60;14.30;;;27.70;99.90;;;;;;5112708;28;20429;-59
2021/06/22 05:58:00;;;;;;;16.53;14.80;;;27.70;99.90;;;;;;5115083;28;20434;-59
2021/06/22 06:00:29;;;;;;;18.30;15.00;;;27.90;99.90;;;;;;5106036;28;20445;-60
2021/06/22 06:02:57;;;;;;;17.50;15.20;;;28.00;99.90;;;;;;5113038;28;20421;-58
2021/06/22 06:05:24;;;;;;;17.23;14.27;;;27.70;99.90;;;;;;5115719;28;20444;-59
2021/06/22 06:07:54;;;;;;;17.37;15.57;;;28.00;99.90;;;;;;5102789;28;20631;-57
2021/06/22 06:10:21;;;;;;;13.97;12.73;;;27.70;99.90;;;;;;5106851;28;20797;-58
2021/06/22 06:12:49;;;;;;;18.17;15.67;;;27.50;99.90;;;;;;5111994;28;20822;-58
2021/06/22 06:15:18;;;;;;;21.40;15.70;;;27.40;99.90;;;;;;5110217;28;20423;-59
2021/06/22 06:17:46;;;;;;;17.07;15.23;;;27.10;99.90;;;;;;5107567;28;20438;-57
2021/06/22 06:20:14;;;;;;;16.67;14.90;;;26.90;99.90;;;;;;5115941;28;20469;-59
2021/06/22 06:22:43;;;;;;;18.70;16.00;;;26.90;99.90;;;;;;5115846;28;20449;-58
2021/06/22 06:25:11;;;;;;;17.13;14.70;;;27.10;99.90;;;;;;5116205;28;20446;-57
2021/06/22 06:30:12;;;;;;;18.77;15.00;;;28.10;99.90;;;;;;5114227;28;20415;-59
2021/06/22 06:32:43;;;;;;;17.17;15.70;;;27.80;99.90;;;;;;5113892;28;20414;-61
2021/06/22 06:35:11;;;;;;;17.50;16.03;;;27.60;99.90;;;;;;5112839;28;20418;-59
2021/06/22 06:37:40;;;;;;;16.83;15.03;;;27.80;99.90;;;;;;5104966;28;20443;-59
2021/06/22 06:40:08;;;;;;;16.83;15.17;;;27.80;99.90;;;;;;5101152;28;20786;-59
2021/06/22 06:42:42;;;;;;;14.77;13.50;;;27.30;99.90;;;;;;5115515;28;20458;-58
2021/06/22 06:45:16;;;;;;;16.33;14.90;;;27.80;99.90;;;;;;5103230;28;20679;-59
2021/06/22 06:47:46;;;;;;;19.00;16.40;;;28.70;99.90;;;;;;5115300;28;20485;-58
2021/06/22 06:50:13;;;;;;;16.90;15.50;;;29.00;99.90;;;;;;5115766;28;20446;-59
2021/06/22 06:52:46;;;;;;;17.67;15.63;;;29.40;99.90;;;;;;5111079;28;20484;-58
2021/06/22 06:55:28;;;;;;;19.80;15.73;;;29.90;99.90;;;;;;5116602;28;20416;-58
2021/06/22 06:57:58;;;;;;;16.90;15.30;;;31.50;99.70;;;;;;5116697;28;20774;-59
2021/06/22 07:00:28;;;;;;;17.50;16.00;;;33.00;96.50;;;;;;5113224;28;20682;-58
2021/06/22 07:03:00;;;;;;;18.77;17.00;;;34.50;93.30;;;;;;5112940;28;20782;-58
2021/06/22 07:05:37;;;;;;;19.17;17.67;;;34.90;91.80;;;;;;5116463;28;20555;-58
2021/06/22 07:08:05;;;;;;;18.67;17.13;;;35.50;90.00;;;;;;5115891;28;20797;-58
2021/06/22 07:10:33;;;;;;;17.53;16.27;;;36.00;88.20;;;;;;5107572;28;20492;-58
2021/06/22 07:13:04;;;;;;;16.43;15.23;;;35.70;88.80;;;;;;5102759;28;20485;-58
2021/06/22 07:15:31;;;;;;;18.67;17.07;;;35.30;88.10;;;;;;5111547;28;20458;-58
2021/06/22 07:17:59;;;;;;;16.60;15.03;;;34.50;90.30;;;;;;5119456;28;20437;-58
2021/06/22 07:20:30;;;;;;;18.70;16.73;;;33.80;91.30;;;;;;5118930;28;20442;-58
2021/06/22 07:22:57;;;;;;;17.50;16.10;;;33.20;92.50;;;;;;5113371;28;20473;-58
2021/06/22 07:25:27;;;;;;;19.10;17.50;;;31.70;95.70;;;;;;5118084;28;20503;-58
2021/06/22 07:27:55;;;;;;;17.97;16.47;;;30.90;96.90;;;;;;5105101;28;20505;-58
2021/06/22 07:30:27;;;;;;;17.20;15.60;;;30.20;98.70;;;;;;5099887;28;20766;-58
2021/06/22 07:32:56;;;;;;;18.97;16.67;;;29.70;99.90;;;;;;5113425;27;20545;-58
2021/06/22 07:35:24;;;;;;;16.17;14.77;;;29.50;99.90;;;;;;5116996;27;20435;-58
2021/06/22 07:37:53;;;;;;;17.27;15.63;;;29.80;99.90;;;;;;5100341;28;20449;-58
2021/06/22 07:40:22;;;;;;;17.30;15.63;;;30.90;99.10;;;;;;5103988;27;20412;-58
2021/06/22 07:42:50;;;;;;;16.60;15.30;;;32.00;96.80;;;;;;5110364;28;20449;-58
2021/06/22 07:45:17;;;;;;;15.90;14.70;;;32.80;95.20;;;;;;5113943;28;20708;-59
2021/06/22 07:47:47;;;;;;;15.63;14.43;;;33.20;94.10;;;;;;5107449;28;20526;-57
2021/06/22 07:50:20;;;;;;;15.47;14.07;;;34.00;93.00;;;;;;5118227;28;20457;-58
2021/06/22 07:52:49;;;;;;;16.30;15.13;;;35.10;90.80;;;;;;5099856;28;20830;-58
2021/06/22 07:55:19;;;;;;;15.57;14.10;;;35.60;87.50;;;;;;5099238;28;20637;-58
2021/06/22 07:57:51;;;;;;;16.93;15.83;;;35.40;87.20;;;;;;5099803;28;20477;-58
2021/06/22 08:00:38;;;;;;;15.70;14.60;;;35.90;85.40;;;;;;5104741;28;20457;-58
2021/06/22 08:03:18;;;;;;;16.67;15.43;;;35.70;85.40;;;;;;5130930;27;20517;-58
2021/06/22 08:05:48;;;;;;;16.67;15.37;;;34.90;87.00;;;;;;5116286;28;20422;-58
2021/06/22 08:08:19;;;;;;;15.50;14.40;;;34.20;89.80;;;;;;5106750;28;20459;-58
2021/06/22 08:10:50;;;;;;;16.70;14.63;;;34.20;90.40;;;;;;5115261;28;20509;-58
2021/06/22 08:13:20;;;;;;;15.63;14.43;;;35.50;86.20;;;;;;5114943;28;20474;-58
2021/06/22 08:15:48;;;;;;;15.23;14.20;;;34.80;87.00;;;;;;5105647;28;20439;-58
2021/06/22 08:18:15;;;;;;;15.60;14.07;;;33.70;90.10;;;;;;5109853;28;20468;-58
2021/06/22 08:20:43;;;;;;;11.03;10.33;;;33.10;91.20;;;;;;5112683;28;20447;-58
2021/06/22 08:23:11;;;;;;;11.20;10.40;;;32.60;91.90;;;;;;5119542;28;20519;-59
2021/06/22 08:25:40;;;;;;;11.70;10.77;;;32.50;91.80;;;;;;5107624;28;20652;-57
2021/06/22 08:28:07;;;;;;;10.83;10.33;;;32.60;91.40;;;;;;5102813;28;20487;-59
2021/06/22 08:30:35;;;;;;;11.60;10.70;;;31.80;92.40;;;;;;5118385;28;20497;-59
2021/06/22 08:33:03;;;;;;;11.60;10.80;;;31.30;93.40;;;;;;5121178;27;20450;-58
2021/06/22 08:35:35;;;;;;;10.47;9.73;;;31.30;94.20;;;;;;5119267;27;20769;-58
2021/06/22 08:38:05;;;;;;;11.27;10.30;;;31.30;93.60;;;;;;5119443;28;20446;-58
2021/06/22 08:40:32;;;;;;;11.30;10.43;;;30.70;94.60;;;;;;5113688;28;20770;-58
2021/06/22 08:42:59;;;;;;;10.90;10.20;;;30.50;95.60;;;;;;5110196;28;20442;-59
2021/06/22 08:45:27;;;;;;;11.73;10.57;;;30.10;95.30;;;;;;5118907;28;20442;-58
2021/06/22 08:47:55;;;;;;;9.23;8.73;;;29.50;96.60;;;;;;5119345;28;20509;-57
2021/06/22 08:50:27;;;;;;;9.73;8.93;;;29.10;97.00;;;;;;5118534;28;20438;-58
2021/06/22 08:52:57;;;;;;;10.90;9.80;;;29.10;98.20;;;;;;5119337;28;20506;-57
2021/06/22 08:55:29;;;;;;;9.70;8.43;;;28.30;98.70;;;;;;5118080;28;20493;-59
2021/06/22 08:57:59;;;;;;;9.60;9.00;;;28.10;99.30;;;;;;5118198;28;20446;-58
2021/06/22 09:00:30;;;;;;;12.30;9.50;;;27.80;99.80;;;;;;5109931;28;20552;-57
2021/06/22 09:03:13;;;;;;;8.77;8.07;;;27.60;99.90;;;;;;5117886;28;20479;-58
2021/06/22 09:05:45;;;;;;;9.30;8.47;;;27.60;99.90;;;;;;5118651;28;20444;-58
2021/06/22 09:08:23;;;;;;;9.43;8.63;;;27.40;99.90;;;;;;5113565;28;20719;-57
2021/06/22 09:10:54;;;;;;;10.13;8.93;;;27.20;99.90;;;;;;5113966;28;20438;-59
2021/06/22 09:13:25;;;;;;;9.17;8.40;;;26.90;99.90;;;;;;5104347;28;20443;-59
2021/06/22 09:15:54;;;;;;;9.90;8.40;;;26.70;99.90;;;;;;5114357;28;20452;-59
2021/06/22 09:18:28;;;;;;;8.20;7.70;;;26.50;99.90;;;;;;5110907;28;20648;-58
2021/06/22 09:21:22;;;;;;;10.13;9.17;;;26.50;99.90;;;;;;5111528;28;20645;-57
2021/06/22 09:23:51;;;;;;;7.80;7.20;;;26.50;99.90;;;;;;5116171;28;20877;-58
2021/06/22 09:26:32;;;;;;;9.80;8.83;;;26.30;99.90;;;;;;5118348;28;20450;-56
2021/06/22 09:29:08;;;;;;;10.23;8.00;;;26.20;99.90;;;;;;5105218;28;20470;-58
2021/06/22 09:31:35;;;;;;;9.00;8.27;;;26.20;99.90;;;;;;5101872;28;20670;-56
2021/06/22 09:34:12;;;;;;;8.07;7.43;;;26.20;99.90;;;;;;5121931;27;20511;-57
2021/06/22 09:36:39;;;;;;;9.77;9.07;;;26.60;99.90;;;;;;5117310;28;20421;-58
2021/06/22 09:39:08;;;;;;;8.43;7.67;;;27.60;99.90;;;;;;5116302;28;20444;-58
2021/06/22 09:41:39;;;;;;;8.47;7.87;;;28.60;99.90;;;;;;5118051;28;20800;-58
2021/06/22 09:44:09;;;;;;;8.53;7.83;;;29.20;98.70;;;;;;5104319;28;20470;-57
2021/06/22 09:46:52;;;;;;;9.60;8.63;;;29.20;98.60;;;;;;5104959;28;20439;-57
2021/06/22 09:49:21;;;;;;;9.30;8.60;;;29.30;98.00;;;;;;5104886;28;20777;-57
2021/06/22 09:52:09;;;;;;;10.07;8.20;;;29.10;98.40;;;;;;5115346;28;20426;-57
2021/06/22 09:54:46;;;;;;;8.77;8.03;;;29.50;98.40;;;;;;5105817;28;20455;-57
2021/06/22 09:57:25;;;;;;;7.77;7.37;;;28.70;98.50;;;;;;5116871;28;20759;-56
2021/06/22 09:59:57;;;;;;;9.00;8.40;;;28.60;98.90;;;;;;5116625;28;20442;-56
2021/06/22 10:02:26;;;;;;;9.63;8.17;;;28.60;98.60;;;;;;5108142;28;20442;-57
2021/06/22 10:04:56;;;;;;;9.23;8.40;;;28.40;99.10;;;;;;5116514;28;20446;-57
2021/06/22 10:07:26;;;;;;;9.47;8.77;;;28.00;99.80;;;;;;5107654;28;20417;-58
2021/06/22 10:09:56;;;;;;;9.10;8.40;;;27.70;99.90;;;;;;5104742;28;20418;-59
2021/06/22 10:12:26;;;;;;;9.70;8.80;;;27.20;99.90;;;;;;5112804;28;20431;-57
2021/06/22 10:14:56;;;;;;;8.87;8.17;;;26.70;99.90;;;;;;5105532;28;20886;-56
2021/06/22 10:17:25;;;;;;;9.47;8.80;;;26.50;99.90;;;;;;5110079;28;20420;-58
2021/06/22 10:20:00;;;;;;;21.03;9.53;;;26.50;99.90;;;;;;5106312;28;20720;-59
2021/06/22 10:22:31;;;;;;;8.77;8.07;;;26.40;99.90;;;;;;5104519;28;20448;-59
2021/06/22 10:25:00;;;;;;;9.50;8.33;;;26.20;99.90;;;;;;5106534;28;20408;-56
2021/06/22 10:27:29;;;;;;;9.30;8.13;;;26.00;99.90;;;;;;5101854;28;20422;-57
2021/06/22 10:30:02;;;;;;;7.97;7.37;;;26.10;99.90;;;;;;5112108;28;20427;-57
2021/06/22 10:32:31;;;;;;;8.53;7.80;;;26.20;99.90;;;;;;5120518;28;20433;-56
2021/06/22 10:35:19;;;;;;;8.80;7.90;;;26.50;99.90;;;;;;5121758;27;20487;-55
2021/06/22 10:38:00;;;;;;;10.00;9.20;;;27.10;99.90;;;;;;5117914;28;20441;-57
2021/06/22 10:40:31;;;;;;;9.07;8.17;;;27.40;99.90;;;;;;5116290;28;20457;-57
2021/06/22 10:43:01;;;;;;;9.10;8.40;;;27.80;99.90;;;;;;5111034;28;20697;-58
2021/06/22 10:46:03;;;;;;;7.90;7.30;;;28.10;99.90;;;;;;5115903;28;20433;-58
2021/06/22 10:48:52;;;;;;;9.63;8.93;;;28.90;99.90;;;;;;5116453;28;20513;-57
2021/06/22 10:51:30;;;;;;;9.90;9.10;;;29.00;99.50;;;;;;5119889;28;20445;-59
2021/06/22 10:53:59;;;;;;;11.27;10.47;;;29.00;99.50;;;;;;5117881;28;20834;-57
2021/06/22 10:56:32;;;;;;;9.90;9.20;;;29.00;99.90;;;;;;5111450;28;20453;-57
2021/06/22 10:59:20;;;;;;;10.87;10.10;;;28.80;99.90;;;;;;5121029;28;20492;-56
2021/06/22 11:01:54;;;;;;;10.27;9.47;;;28.70;99.90;;;;;;5108978;28;20776;-57
2021/06/22 11:04:22;;;;;;;11.23;10.40;;;29.10;99.90;;;;;;5114644;28;20476;-58
2021/06/22 11:07:18;;;;;;;11.53;10.43;;;29.40;99.40;;;;;;5111776;28;20441;-58
2021/06/22 11:10:11;;;;;;;12.33;11.33;;;29.30;98.90;;;;;;5116833;28;21078;-58
2021/06/22 11:12:47;;;;;;;11.27;10.30;;;28.50;99.90;;;;;;5111775;28;20473;-56
2021/06/22 11:15:14;;;;;;;12.80;11.50;;;28.00;99.90;;;;;;5111525;28;20845;-56
2021/06/22 11:17:42;;;;;;;11.50;10.70;;;27.70;99.90;;;;;;5100657;28;20413;-56
2021/06/22 11:20:15;;;;;;;11.63;10.70;;;27.80;99.90;;;;;;5112759;28;20463;-56
2021/06/22 11:23:05;;;;;;;12.00;10.80;;;27.90;99.90;;;;;;5119846;28;20486;-57
2021/06/22 11:26:03;;;;;;;11.07;10.20;;;27.70;99.90;;;;;;5106912;28;20444;-56
2021/06/22 11:28:55;;;;;;;11.63;10.53;;;27.80;99.90;;;;;;5103233;28;20644;-56
2021/06/22 11:31:36;;;;;;;12.13;11.00;;;28.10;99.90;;;;;;5120765;28;20467;-57
2021/06/22 11:34:07;;;;;;;11.60;10.73;;;27.80;99.90;;;;;;5122803;27;20701;-55
2021/06/22 11:36:45;;;;;;;13.07;11.77;;;27.90;99.90;;;;;;5120156;28;20455;-58
2021/06/22 11:39:24;;;;;;;11.90;10.40;;;28.50;99.90;;;;;;5108036;28;20418;-58
2021/06/22 11:42:10;;;;;;;12.90;11.80;;;28.70;99.90;;;;;;5118573;28;20417;-56
2021/06/22 11:44:38;;;;;;;13.27;11.87;;;29.00;99.60;;;;;;5108690;28;20643;-56
2021/06/22 11:47:24;;;;;;;11.97;11.07;;;28.90;99.50;;;;;;5105605;28;20418;-57
2021/06/22 11:49:54;;;;;;;11.20;10.47;;;28.90;99.40;;;;;;5101922;28;20462;-57
2021/06/22 11:52:31;;;;;;;11.83;10.80;;;28.60;99.60;;;;;;5121062;27;20731;-57
2021/06/22 11:55:04;;;;;;;13.10;11.90;;;27.80;99.90;;;;;;5120322;28;20537;-58
2021/06/22 11:57:33;;;;;;;11.97;10.97;;;27.80;99.90;;;;;;5106627;28;20418;-57
2021/06/22 12:00:15;;;;;;;10.97;10.17;;;27.60;99.90;;;;;;5114098;28;20478;-56
2021/06/22 12:02:49;;;;;;;11.50;10.30;;;27.40;99.90;;;;;;5101564;28;20633;-55
2021/06/22 12:05:19;;;;;;;10.83;9.60;;;27.40;99.90;;;;;;5103874;28;20467;-57
2021/06/22 12:07:50;;;;;;;12.87;10.40;;;27.50;99.90;;;;;;5114455;28;20582;-56
2021/06/22 12:10:23;;;;;;;10.53;9.53;;;27.20;99.90;;;;;;5100979;28;20440;-57
2021/06/22 12:12:52;;;;;;;11.23;10.10;;;26.70;99.90;;;;;;5114727;28;20439;-58
2021/06/22 12:15:34;;;;;;;10.50;9.50;;;26.20;99.90;;;;;;5103280;28;20853;-57
2021/06/22 12:18:02;;;;;;;9.73;7.97;;;25.50;99.90;;;;;;5119098;28;20732;-55
2021/06/22 12:20:31;;;;;;;8.90;8.10;;;25.10;99.90;;;;;;5114461;28;20479;-59
2021/06/22 12:23:13;;;;;;;9.10;8.30;;;24.80;99.90;;;;;;5116225;28;20648;-54
2021/06/22 12:25:49;;;;;;;9.07;8.27;;;24.80;99.90;;;;;;5106057;27;20462;-57
2021/06/22 12:28:16;;;;;;;8.43;7.80;;;24.60;99.90;;;;;;5102188;28;20451;-56
2021/06/22 12:30:49;;;;;;;11.67;8.90;;;24.60;99.90;;;;;;5101957;28;20625;-55
2021/06/22 12:33:27;;;;;;;9.00;8.10;;;24.40;99.90;;;;;;5119900;27;20474;-56
2021/06/22 12:36:00;;;;;;;8.70;7.80;;;24.50;99.90;;;;;;5102185;28;20508;-56
2021/06/22 12:38:30;;;;;;;7.37;6.57;;;24.70;99.90;;;;;;5113809;28;20456;-58
2021/06/22 12:41:00;;;;;;;8.47;7.13;;;24.80;99.90;;;;;;5115132;28;20441;-57
2021/06/22 12:43:48;;;;;;;7.80;6.70;;;25.20;99.90;;;;;;5106781;28;20781;-56
2021/06/22 12:46:24;;;;;;;7.50;6.80;;;25.60;99.90;;;;;;5111716;28;20414;-56
2021/06/22 12:49:15;;;;;;;8.67;7.80;;;25.80;99.90;;;;;;5115980;28;20453;-52
2021/06/22 12:51:48;;;;;;;9.33;8.40;;;25.70;99.90;;;;;;5108644;28;21016;-58